Map

Track Data

SID SEASON NUMBER BASIN SUBBASIN NAME ISO_TIME NATURE LAT LON WMO_WIND WMO_PRES WMO_AGENCY TRACK_TYPE DIST2LAND LANDFALL IFLAG USA_AGENCY USA_ATCF_ID USA_LAT USA_LON USA_RECORD USA_STATUS USA_WIND USA_PRES USA_SSHS USA_R34_NE USA_R34_SE USA_R34_SW USA_R34_NW USA_R50_NE USA_R50_SE USA_R50_SW USA_R50_NW USA_R64_NE USA_R64_SE USA_R64_SW USA_R64_NW USA_POCI USA_ROCI USA_RMW USA_EYE TOKYO_LAT TOKYO_LON TOKYO_GRADE TOKYO_WIND TOKYO_PRES TOKYO_R50_DIR TOKYO_R50_LONG TOKYO_R50_SHORT TOKYO_R30_DIR TOKYO_R30_LONG TOKYO_R30_SHORT TOKYO_LAND CMA_LAT CMA_LON CMA_CAT CMA_WIND CMA_PRES HKO_LAT HKO_LON HKO_CAT HKO_WIND HKO_PRES NEWDELHI_LAT NEWDELHI_LON NEWDELHI_GRADE NEWDELHI_WIND NEWDELHI_PRES NEWDELHI_CI NEWDELHI_DP NEWDELHI_POCI REUNION_LAT REUNION_LON REUNION_TYPE REUNION_WIND REUNION_PRES REUNION_TNUM REUNION_CI REUNION_RMW REUNION_R34_NE REUNION_R34_SE REUNION_R34_SW REUNION_R34_NW REUNION_R50_NE REUNION_R50_SE REUNION_R50_SW REUNION_R50_NW REUNION_R64_NE REUNION_R64_SE REUNION_R64_SW REUNION_R64_NW BOM_LAT BOM_LON BOM_TYPE BOM_WIND BOM_PRES BOM_TNUM BOM_CI BOM_RMW BOM_R34_NE BOM_R34_SE BOM_R34_SW BOM_R34_NW BOM_R50_NE BOM_R50_SE BOM_R50_SW BOM_R50_NW BOM_R64_NE BOM_R64_SE BOM_R64_SW BOM_R64_NW BOM_ROCI BOM_POCI BOM_EYE BOM_POS_METHOD BOM_PRES_METHOD NADI_LAT NADI_LON NADI_CAT NADI_WIND NADI_PRES WELLINGTON_LAT WELLINGTON_LON WELLINGTON_WIND WELLINGTON_PRES DS824_LAT DS824_LON DS824_STAGE DS824_WIND DS824_PRES TD9636_LAT TD9636_LON TD9636_STAGE TD9636_WIND TD9636_PRES TD9635_LAT TD9635_LON TD9635_WIND TD9635_PRES TD9635_ROCI NEUMANN_LAT NEUMANN_LON NEUMANN_CLASS NEUMANN_WIND NEUMANN_PRES MLC_LAT MLC_LON MLC_CLASS MLC_WIND MLC_PRES USA_GUST BOM_GUST BOM_GUST_PER REUNION_GUST REUNION_GUST_PER USA_SEAHGT USA_SEARAD_NE USA_SEARAD_SE USA_SEARAD_SW USA_SEARAD_NW STORM_SPEED STORM_DIR
1983237N11253 1983 50 EP MM JULIETTE 1983-08-24 18:00:00 TS 11.2000 -107.400 25 hurdat_epa main 898 889 O_________O___ hurdat_epa EP101983 11.2000 -107.400 TD 25 -1 11.2000 -107.400 1 25 11 306
1983237N11253 1983 50 EP MM JULIETTE 1983-08-24 21:00:00 TS 11.5097 -107.840 main 890 885 P_________P___ EP101983 11.5126 -107.835 TD 25 -1 11.5011 -107.854 1 25 11 304
1983237N11253 1983 50 EP MM JULIETTE 1983-08-25 00:00:00 TS 11.8000 -108.300 25 hurdat_epa main 891 888 O_________O___ hurdat_epa EP101983 11.8000 -108.300 TD 25 -1 11.8000 -108.300 1 25 11 301
1983237N11253 1983 50 EP MM JULIETTE 1983-08-25 03:00:00 TS 12.0612 -108.789 main 897 897 P_________P___ EP101983 12.0500 -108.808 TD 25 -1 12.0947 -108.733 1 25 11 299
1983237N11253 1983 50 EP MM JULIETTE 1983-08-25 06:00:00 TS 12.3200 -109.267 25 hurdat_epa main 910 899 O_________P___ hurdat_epa EP101983 12.3000 -109.300 TD 25 -1 12.3801 -109.166 1 25 10 303
1983237N11253 1983 50 EP MM JULIETTE 1983-08-25 09:00:00 TS 12.6124 -109.674 main 905 896 P_________P___ EP101983 12.5998 -109.693 TD 25 -1 12.6505 -109.616 1 25 10 305
1983237N11253 1983 50 EP MM JULIETTE 1983-08-25 12:00:00 TS 12.9000 -110.100 25 hurdat_epa main 904 902 O_________O___ hurdat_epa EP101983 12.9000 -110.100 TD 25 -1 12.9000 -110.100 1 25 11 301
1983237N11253 1983 50 EP MM JULIETTE 1983-08-25 15:00:00 TS 13.1669 -110.627 main 913 913 P_________P___ EP101983 13.1725 -110.620 TD 27 -1 13.1501 -110.647 1 26 12 295
1983237N11253 1983 50 EP MM JULIETTE 1983-08-25 18:00:00 TS 13.3938 -111.207 30 hurdat_epa main 942 942 O_________P___ hurdat_epa EP101983 13.4000 -111.200 TD 30 -1 13.3751 -111.227 1 27 12 289
1983237N11253 1983 50 EP MM JULIETTE 1983-08-25 21:00:00 TS 13.5700 -111.805 main 972 972 P_________P___ EP101983 13.5725 -111.800 TD 30 -1 13.5626 -111.819 1 28 12 285
1983237N11253 1983 50 EP MM JULIETTE 1983-08-26 00:00:00 TS 13.7000 -112.400 30 hurdat_epa main 1011 1011 O_________O___ hurdat_epa EP101983 13.7000 -112.400 TD 30 -1 13.7000 -112.400 1 30 12 282
1983237N11253 1983 50 EP MM JULIETTE 1983-08-26 03:00:00 TS 13.8142 -112.965 main 1052 1052 P_________P___ EP101983 13.8299 -112.965 TD 30 -1 13.7670 -112.964 1 30 11 279
1983237N11253 1983 50 EP MM JULIETTE 1983-08-26 06:00:00 TS 13.8718 -113.503 30 hurdat_epa main 1072 1072 O_________P___ hurdat_epa EP101983 13.9000 -113.500 TD 30 -1 13.7874 -113.511 1 30 10 271
1983237N11253 1983 50 EP MM JULIETTE 1983-08-26 09:00:00 TS 13.8403 -114.024 main 1101 1101 P_________P___ EP101983 13.8574 -114.023 TD 30 -1 13.7890 -114.027 1 30 10 266
1983237N11253 1983 50 EP MM JULIETTE 1983-08-26 12:00:00 TS 13.8000 -114.500 30 hurdat_epa main 1123 1123 O_________O___ hurdat_epa EP101983 13.8000 -114.500 TD 30 -1 13.8000 -114.500 1 30 9 269
1983237N11253 1983 50 EP MM JULIETTE 1983-08-26 15:00:00 TS 13.8295 -114.931 main 1141 1141 P_________P___ EP101983 13.8274 -114.922 TD 32 -1 13.8360 -114.955 1 32 8 277
1983237N11253 1983 50 EP MM JULIETTE 1983-08-26 18:00:00 TS 13.8974 -115.316 35 hurdat_epa main 1151 1151 O_________P___ hurdat_epa EP101983 13.9000 -115.300 TS 35 0 13.8898 -115.363 1 35 8 281
1983237N11253 1983 50 EP MM JULIETTE 1983-08-26 21:00:00 TS 13.9709 -115.694 main 1162 1162 P_________P___ EP101983 13.9700 -115.688 TS 37 0 13.9737 -115.714 1 37 7 287
1983237N11253 1983 50 EP MM JULIETTE 1983-08-27 00:00:00 TS 14.1000 -116.000 40 hurdat_epa main 1169 1162 O_________O___ hurdat_epa EP101983 14.1000 -116.000 TS 40 0 14.1000 -116.000 2 40 6 306
1983237N11253 1983 50 EP MM JULIETTE 1983-08-27 03:00:00 TS 14.3145 -116.188 main 1162 1140 P_________P___ EP101983 14.3349 -116.180 TS 40 0 14.2531 -116.211 2 40 6 326
1983237N11253 1983 50 EP MM JULIETTE 1983-08-27 06:00:00 TS 14.5630 -116.315 40 hurdat_epa main 1140 1137 O_________P___ hurdat_epa EP101983 14.6000 -116.300 TS 40 0 14.4521 -116.360 2 40 5 330
1983237N11253 1983 50 EP MM JULIETTE 1983-08-27 09:00:00 TS 14.7525 -116.452 main 1134 1123 P_________P___ EP101983 14.7700 -116.443 TS 40 0 14.7000 -116.480 2 40 5 328
1983237N11253 1983 50 EP MM JULIETTE 1983-08-27 12:00:00 TS 15.0000 -116.600 40 hurdat_epa main 1123 1101 O_________O___ hurdat_epa EP101983 15.0000 -116.600 TS 40 0 15.0000 -116.600 2 40 7 334
1983237N11253 1983 50 EP MM JULIETTE 1983-08-27 15:00:00 TS 15.4121 -116.792 main 1101 1074 P_________P___ EP101983 15.4275 -116.800 TS 40 0 15.3659 -116.768 2 38 10 337
1983237N11253 1983 50 EP MM JULIETTE 1983-08-27 18:00:00 TS 15.8694 -116.986 40 hurdat_epa main 1072 1055 O_________P___ hurdat_epa EP101983 15.9000 -117.000 TS 40 0 15.7775 -116.942 2 37 9 338
1983237N11253 1983 50 EP MM JULIETTE 1983-08-27 21:00:00 TS 16.2544 -117.148 main 1047 1038 P_________P___ EP101983 16.2725 -117.158 TS 37 0 16.2003 -117.121 2 36 8 338
1983237N11253 1983 50 EP MM JULIETTE 1983-08-28 00:00:00 TS 16.6000 -117.300 35 hurdat_epa main 1038 1023 O_________O___ hurdat_epa EP101983 16.6000 -117.300 TS 35 0 16.6000 -117.300 2 35 7 337
1983237N11253 1983 50 EP MM JULIETTE 1983-08-28 03:00:00 TS 16.9209 -117.447 main 1023 1014 P_________P___ EP101983 16.9075 -117.443 TS 35 0 16.9611 -117.459 2 35 7 335
1983237N11253 1983 50 EP MM JULIETTE 1983-08-28 06:00:00 TS 17.2224 -117.605 35 hurdat_epa main 1014 992 O_________P___ hurdat_epa EP101983 17.2000 -117.600 TS 35 0 17.2897 -117.620 2 35 7 332
1983237N11253 1983 50 EP MM JULIETTE 1983-08-28 09:00:00 TS 17.5352 -117.782 main 998 984 P_________P___ EP101983 17.5224 -117.778 TS 35 0 17.5735 -117.796 2 35 7 327
1983237N11253 1983 50 EP MM JULIETTE 1983-08-28 12:00:00 TS 17.8000 -118.000 35 hurdat_epa main 984 979 O_________O___ hurdat_epa EP101983 17.8000 -118.000 TS 35 0 17.8000 -118.000 2 35 7 313
1983237N11253 1983 50 EP MM JULIETTE 1983-08-28 15:00:00 TS 17.9831 -118.280 main 986 984 P_________P___ EP101983 17.9875 -118.293 TS 35 0 17.9697 -118.242 2 38 6 298
1983237N11253 1983 50 EP MM JULIETTE 1983-08-28 18:00:00 TS 18.0956 -118.578 35 hurdat_epa main 998 998 O_________P___ hurdat_epa EP101983 18.1000 -118.600 TS 35 0 18.0825 -118.513 2 42 6 289
1983237N11253 1983 50 EP MM JULIETTE 1983-08-28 21:00:00 TS 18.1678 -118.838 main 1003 1003 P_________P___ EP101983 18.1724 -118.850 TS 42 0 18.1540 -118.802 2 46 5 282
1983237N11253 1983 50 EP MM JULIETTE 1983-08-29 00:00:00 TS 18.2000 -119.100 50 hurdat_epa main 1025 1025 O_________O___ hurdat_epa EP101983 18.2000 -119.100 TS 50 0 18.2000 -119.100 2 50 5 275
1983237N11253 1983 50 EP MM JULIETTE 1983-08-29 03:00:00 TS 18.2116 -119.392 main 1047 1047 P_________P___ EP101983 18.2000 -119.393 TS 50 0 18.2464 -119.389 2 48 6 272
1983237N11253 1983 50 EP MM JULIETTE 1983-08-29 06:00:00 TS 18.2181 -119.696 50 hurdat_epa main 1070 1070 O_________P___ hurdat_epa EP101983 18.2000 -119.700 TS 50 0 18.2723 -119.685 2 47 6 275
1983237N11253 1983 50 EP MM JULIETTE 1983-08-29 09:00:00 TS 18.2592 -119.997 main 1085 1085 P_________P___ EP101983 18.2500 -120.000 TS 47 0 18.2870 -119.989 2 46 6 278
1983237N11253 1983 50 EP MM JULIETTE 1983-08-29 12:00:00 TS 18.3000 -120.300 45 hurdat_epa main 1108 1108 O_________O___ hurdat_epa EP101983 18.3000 -120.300 TS 45 0 18.3000 -120.300 2 45 6 275
1983237N11253 1983 50 EP MM JULIETTE 1983-08-29 15:00:00 TS 18.3052 -120.600 main 1131 1131 P_________P___ EP101983 18.2999 -120.593 TS 42 0 18.3209 -120.622 2 43 6 271
1983237N11253 1983 50 EP MM JULIETTE 1983-08-29 18:00:00 TS 18.3106 -120.913 40 hurdat_epa main 1155 1155 O_________P___ hurdat_epa EP101983 18.3000 -120.900 TS 40 0 18.3424 -120.950 2 42 6 274
1983237N11253 1983 50 EP MM JULIETTE 1983-08-29 21:00:00 TS 18.3488 -121.251 main 1188 1181 P_________P___ EP101983 18.3425 -121.242 TS 40 0 18.3678 -121.278 2 41 7 278
1983237N11253 1983 50 EP MM JULIETTE 1983-08-30 00:00:00 TS 18.4000 -121.600 40 hurdat_epa main 1205 1205 O_________O___ hurdat_epa EP101983 18.4000 -121.600 TS 40 0 18.4000 -121.600 2 40 7 278
1983237N11253 1983 50 EP MM JULIETTE 1983-08-30 03:00:00 TS 18.4441 -121.950 main 1231 1231 P_________P___ EP101983 18.4500 -121.965 TS 37 0 18.4263 -121.903 2 38 6 278
1983237N11253 1983 50 EP MM JULIETTE 1983-08-30 06:00:00 TS 18.4905 -122.275 35 hurdat_epa main 1258 1258 O_________P___ hurdat_epa EP101983 18.5000 -122.300 TS 35 0 18.4622 -122.200 2 37 6 279
1983237N11253 1983 50 EP MM JULIETTE 1983-08-30 09:00:00 TS 18.5360 -122.537 main 1275 1275 P_________P___ EP101983 18.5423 -122.550 TS 35 0 18.5169 -122.497 2 36 5 282
1983237N11253 1983 50 EP MM JULIETTE 1983-08-30 12:00:00 TS 18.6000 -122.800 35 hurdat_epa main 1288 1288 O_________O___ hurdat_epa EP101983 18.6000 -122.800 TS 35 0 18.6000 -122.800 2 35 6 284
1983237N11253 1983 50 EP MM JULIETTE 1983-08-30 15:00:00 TS 18.6834 -123.143 main 1301 1301 P_________P___ EP101983 18.6776 -123.143 TS 32 -1 18.7011 -123.146 2 33 7 287
1983237N11253 1983 50 EP MM JULIETTE 1983-08-30 18:00:00 TS 18.8082 -123.499 30 hurdat_epa main 1319 1317 O_________P___ hurdat_epa EP101983 18.8000 -123.500 TD 30 -1 18.8328 -123.495 2 32 7 295
1983237N11253 1983 50 EP MM JULIETTE 1983-08-30 21:00:00 TS 18.9826 -123.828 main 1322 1321 P_________P___ EP101983 18.9775 -123.830 TD 30 -1 18.9980 -123.821 2 31 7 305
1983237N11253 1983 50 EP MM JULIETTE 1983-08-31 00:00:00 TS 19.2000 -124.100 30 hurdat_epa main 1326 1317 O_________O___ hurdat_epa EP101983 19.2000 -124.100 TD 30 -1 19.2000 -124.100 1 30 6 317
1983237N11253 1983 50 EP MM JULIETTE 1983-08-31 03:00:00 TS 19.4379 -124.279 main 1324 1308 P_________P___ EP101983 19.4349 -124.273 TD 27 -1 19.4468 -124.296 1 28 6 330
1983237N11253 1983 50 EP MM JULIETTE 1983-08-31 06:00:00 TS 19.7068 -124.411 25 hurdat_epa main 1308 1292 O_________P___ hurdat_epa EP101983 19.7000 -124.400 TD 25 -1 19.7271 -124.445 1 27 6 336
1983237N11253 1983 50 EP MM JULIETTE 1983-08-31 09:00:00 TS 20.0103 -124.555 main 1300 1284 P_________P___ EP101983 20.0075 -124.550 TD 25 -1 20.0188 -124.572 1 26 7 335
1983237N11253 1983 50 EP MM JULIETTE 1983-08-31 12:00:00 TS 20.3000 -124.700 25 hurdat_epa main 1284 1277 O_________O___ hurdat_epa EP101983 20.3000 -124.700 TD 25 -1 20.3000 -124.700 1 25 6 331
1983237N11253 1983 50 EP MM JULIETTE 1983-08-31 15:00:00 TS 20.5111 -124.848 main 1277 1277 P_________P___ EP101983 20.5075 -124.843 TD 25 -1 20.5220 -124.863 1 25 5 325
1983237N11253 1983 50 EP MM JULIETTE 1983-08-31 18:00:00 TS 20.7082 -125.008 25 hurdat_epa main 1279 1272 O_________P___ hurdat_epa EP101983 20.7000 -125.000 TD 25 -1 20.7329 -125.033 1 25 5 323
1983237N11253 1983 50 EP MM JULIETTE 1983-08-31 21:00:00 TS 20.9393 -125.197 main 1281 1274 P_________P___ EP101983 20.9350 -125.193 TD 25 -1 20.9524 -125.212 1 25 6 324
1983237N11253 1983 50 EP MM JULIETTE 1983-09-01 00:00:00 TS 21.2000 -125.400 25 hurdat_epa main 1277 1270 O_________O___ hurdat_epa EP101983 21.2000 -125.400 TD 25 -1 21.2000 -125.400 1 25 7 326
1983237N11253 1983 50 EP MM JULIETTE 1983-09-01 03:00:00 TS 21.4914 -125.601 main 1274 1268 P_________P___ EP101983 21.4925 -125.602 TD 22 -1 21.4881 -125.597 1 22 7 328
1983237N11253 1983 50 EP MM JULIETTE 1983-09-01 06:00:00 TS 21.8000 -125.800 20 hurdat_epa main 1272 O_________O___ hurdat_epa EP101983 21.8000 -125.800 TD 20 -1 21.8000 -125.800 1 20 7 329

About IBTrACS Database

This database is a web-friendly format of International Best Track Archive for Climate Stewardship (IBTrACS), a global best track data archive curated by NOAA dating back to 1842.

Updated: 2021-12-06